Terminal Aerodrome Forecast
Issued by NWS

Home | Current Version | Previous Version | Text Only | Print | Product List | Glossary On
Versions: 1 2 3 4 5 6 7 8 9 10 11 12 13 14 15 16
000
FTUS43 KGRB 302300
TAFMTW
TAF
KMTW 302333Z 3100/3124 21003KT P6SM SCT070 OVC090
     FM310800 22005KT P6SM SCT035 OVC060
      TEMPO 3109/3113 -SHSN BKN035
     FM311500 27005KT P6SM BKN035 OVC080
     FM312100 36009KT P6SM BKN035 OVC080
      TEMPO 3122/3124 3SM -SN BKN025=

USA.gov is the U.S. government's official web portal to all federal, state and local government web resources and services.